Time;durP1;ratioP1;P1;durP2;ratioP2;P2;SDS_P1;SDS_P2;PMS_P1;PMS_P2;Temp;Humidity;BMP_temperature;BMP_pressure;BME280_temperature;BME280_humidity;BME280_pressure;Samples;Min_cycle;Max_cycle;Signal;HPM_P1;HPM_P2
2023/08/01 00:01:55;;;;;;;20.10;19.40;;;23.00;99.90;;;;;;5012648;28;20492;-57
2023/08/01 00:04:25;;;;;;;19.27;18.67;;;23.00;99.90;;;;;;5013946;28;20509;-57
2023/08/01 00:06:55;;;;;;;19.97;19.37;;;23.00;99.90;;;;;;5013986;28;20927;-54
2023/08/01 00:09:28;;;;;;;20.20;19.60;;;23.00;99.90;;;;;;5013073;28;20508;-57
2023/08/01 00:11:57;;;;;;;23.20;22.50;;;23.00;99.90;;;;;;5012614;28;20450;-56
2023/08/01 00:14:25;;;;;;;19.70;19.10;;;23.00;99.90;;;;;;5013916;28;20461;-58
2023/08/01 00:16:52;;;;;;;20.63;19.93;;;23.00;99.90;;;;;;5013508;28;20584;-58
2023/08/01 00:19:22;;;;;;;19.97;19.37;;;23.00;99.90;;;;;;5012925;28;20454;-58
2023/08/01 00:21:56;;;;;;;20.40;19.70;;;23.00;99.90;;;;;;5013583;28;20951;-54
2023/08/01 00:24:25;;;;;;;19.70;19.00;;;23.00;99.90;;;;;;5006516;28;20502;-58
2023/08/01 00:26:55;;;;;;;20.60;20.00;;;23.00;99.90;;;;;;5012344;28;20457;-58
2023/08/01 00:29:23;;;;;;;19.00;18.40;;;22.90;99.90;;;;;;5013090;28;20870;-57
2023/08/01 00:31:50;;;;;;;18.73;18.10;;;22.90;99.90;;;;;;5013419;28;20449;-59
2023/08/01 00:34:17;;;;;;;18.83;18.23;;;22.90;99.90;;;;;;5005688;28;20469;-58
2023/08/01 00:36:44;;;;;;;18.93;18.30;;;22.90;99.90;;;;;;5013550;28;20485;-58
2023/08/01 00:39:11;;;;;;;19.20;18.60;;;22.90;99.90;;;;;;5013154;28;20481;-58
2023/08/01 00:41:38;;;;;;;19.80;19.10;;;22.90;99.90;;;;;;5013039;28;20513;-56
2023/08/01 00:44:05;;;;;;;19.57;18.50;;;22.90;99.90;;;;;;5013151;28;21026;-57
2023/08/01 00:46:33;;;;;;;18.77;18.17;;;22.90;99.90;;;;;;5013365;28;20474;-59
2023/08/01 00:49:00;;;;;;;19.03;18.30;;;22.90;99.90;;;;;;5012679;28;20500;-58
2023/08/01 00:51:28;;;;;;;18.60;18.00;;;22.90;99.90;;;;;;5013268;28;20531;-56
2023/08/01 00:53:55;;;;;;;19.60;18.50;;;22.90;99.90;;;;;;5013110;28;20982;-56
2023/08/01 00:56:22;;;;;;;20.03;19.33;;;22.90;99.90;;;;;;5013179;28;20504;-57
2023/08/01 00:58:49;;;;;;;19.97;19.27;;;22.80;99.90;;;;;;5013004;28;20505;-55
2023/08/01 01:01:16;;;;;;;19.93;19.33;;;22.80;99.90;;;;;;5012845;28;20500;-56
2023/08/01 01:03:44;;;;;;;18.77;18.17;;;22.80;99.90;;;;;;5013540;28;20513;-58
2023/08/01 01:06:18;;;;;;;18.67;18.17;;;22.80;99.90;;;;;;5013368;28;20477;-55
2023/08/01 01:08:45;;;;;;;18.33;17.73;;;22.80;99.90;;;;;;5013551;28;20485;-58
2023/08/01 01:11:12;;;;;;;18.80;18.20;;;22.80;99.90;;;;;;5013180;28;20476;-56
2023/08/01 01:13:39;;;;;;;18.60;18.10;;;22.80;99.90;;;;;;5014325;28;20485;-58
2023/08/01 01:16:06;;;;;;;19.10;18.40;;;22.80;99.90;;;;;;5013122;28;20819;-57
2023/08/01 01:18:33;;;;;;;18.97;18.37;;;22.80;99.90;;;;;;5013115;28;20484;-57
2023/08/01 01:21:01;;;;;;;19.90;19.10;;;22.80;99.90;;;;;;5012812;28;20489;-57
2023/08/01 01:23:29;;;;;;;20.47;19.87;;;22.80;99.90;;;;;;5012774;28;20482;-57
2023/08/01 01:25:57;;;;;;;19.77;19.17;;;22.80;99.90;;;;;;5013276;28;20473;-57
2023/08/01 01:28:25;;;;;;;19.67;19.07;;;22.80;99.90;;;;;;5013188;28;20454;-55
2023/08/01 01:30:53;;;;;;;18.67;18.17;;;22.80;99.90;;;;;;5012721;28;20470;-56
2023/08/01 01:33:20;;;;;;;19.10;18.50;;;22.80;99.90;;;;;;5004821;28;20457;-57
2023/08/01 01:35:48;;;;;;;19.90;19.30;;;22.80;99.90;;;;;;5013110;28;20485;-55
2023/08/01 01:38:17;;;;;;;20.57;19.87;;;22.80;99.90;;;;;;5012927;28;20478;-57
2023/08/01 01:40:44;;;;;;;18.63;17.93;;;22.80;99.90;;;;;;5012636;28;20916;-56
2023/08/01 01:43:11;;;;;;;19.23;18.63;;;22.80;99.90;;;;;;5011760;28;20505;-57
2023/08/01 01:45:37;;;;;;;19.37;18.77;;;22.70;99.90;;;;;;5012782;28;20928;-57
2023/08/01 01:48:04;;;;;;;19.60;19.00;;;22.70;99.90;;;;;;5012897;28;20975;-56
2023/08/01 01:50:31;;;;;;;18.73;18.23;;;22.70;99.90;;;;;;5012871;28;20866;-55
2023/08/01 01:52:58;;;;;;;18.67;17.97;;;22.70;99.90;;;;;;5012777;28;20478;-57
2023/08/01 01:55:26;;;;;;;19.60;19.00;;;22.70;99.90;;;;;;5013018;28;20474;-56
2023/08/01 01:57:53;;;;;;;18.17;17.67;;;22.70;99.90;;;;;;5013017;28;20484;-57
2023/08/01 02:00:20;;;;;;;18.93;18.33;;;22.70;99.90;;;;;;5004324;28;20551;-55
2023/08/01 02:02:47;;;;;;;18.93;18.33;;;22.70;99.90;;;;;;5012785;28;20902;-57
2023/08/01 02:05:14;;;;;;;18.37;17.80;;;22.70;99.90;;;;;;5012741;28;20515;-57
2023/08/01 02:07:41;;;;;;;19.37;18.77;;;22.70;99.90;;;;;;5012772;28;20951;-56
2023/08/01 02:10:08;;;;;;;19.07;18.37;;;22.70;99.90;;;;;;5012220;28;21017;-57
2023/08/01 02:12:37;;;;;;;19.50;18.80;;;22.70;99.90;;;;;;5012717;28;20482;-56
2023/08/01 02:15:04;;;;;;;19.53;18.30;;;22.70;99.90;;;;;;5012566;28;20509;-57
2023/08/01 02:17:31;;;;;;;18.90;18.30;;;22.70;99.90;;;;;;5012623;28;20476;-56
2023/08/01 02:19:58;;;;;;;19.47;18.87;;;22.70;99.90;;;;;;5012292;28;20490;-56
2023/08/01 02:22:26;;;;;;;19.90;19.30;;;22.70;99.90;;;;;;5012257;28;20866;-57
2023/08/01 02:24:53;;;;;;;18.93;18.33;;;22.70;99.90;;;;;;5012582;28;20505;-57
2023/08/01 02:27:20;;;;;;;19.40;18.77;;;22.70;99.90;;;;;;5012536;28;20460;-56
2023/08/01 02:29:49;;;;;;;18.70;18.10;;;22.70;99.90;;;;;;5012312;28;20497;-55
2023/08/01 02:32:16;;;;;;;19.37;18.77;;;22.70;99.90;;;;;;5012684;28;20473;-58
2023/08/01 02:34:43;;;;;;;18.40;17.80;;;22.70;99.90;;;;;;5012469;28;20466;-58
2023/08/01 02:37:10;;;;;;;19.77;19.17;;;22.70;99.90;;;;;;5012533;28;20474;-55
2023/08/01 02:39:37;;;;;;;20.20;19.60;;;22.60;99.90;;;;;;5012339;28;20955;-55
2023/08/01 02:42:04;;;;;;;19.00;18.30;;;22.60;99.90;;;;;;5012072;28;20899;-56
2023/08/01 02:44:31;;;;;;;21.03;20.33;;;22.60;99.90;;;;;;5011645;28;20535;-57
2023/08/01 02:46:59;;;;;;;19.23;18.63;;;22.60;99.90;;;;;;5012483;28;20957;-57
2023/08/01 02:49:26;;;;;;;19.87;19.20;;;22.60;99.90;;;;;;5012311;28;20490;-52
2023/08/01 02:51:53;;;;;;;20.03;19.43;;;22.60;99.90;;;;;;5011972;28;20485;-56
2023/08/01 02:54:20;;;;;;;20.00;19.30;;;22.60;99.90;;;;;;5012529;28;20851;-58
2023/08/01 02:56:47;;;;;;;20.67;19.97;;;22.60;99.90;;;;;;5017504;28;20470;-56
2023/08/01 02:59:13;;;;;;;19.00;18.30;;;22.60;99.90;;;;;;5016462;28;20474;-58
2023/08/01 03:01:40;;;;;;;19.80;19.10;;;22.60;99.90;;;;;;5015620;28;20493;-57
2023/08/01 03:04:11;;;;;;;19.70;19.00;;;22.60;99.90;;;;;;5015614;28;20569;-58
2023/08/01 03:06:38;;;;;;;21.73;21.03;;;22.60;99.90;;;;;;5016019;28;20446;-57
2023/08/01 03:09:07;;;;;;;20.53;19.83;;;22.60;99.90;;;;;;5015479;28;20480;-56
2023/08/01 03:11:36;;;;;;;20.10;19.40;;;22.60;99.90;;;;;;5015624;28;20848;-55
2023/08/01 03:14:04;;;;;;;20.40;19.70;;;22.60;99.90;;;;;;5015450;28;20472;-58
2023/08/01 03:16:31;;;;;;;20.87;20.13;;;22.50;99.90;;;;;;5015660;28;20464;-57
2023/08/01 03:19:00;;;;;;;20.30;19.60;;;22.60;99.90;;;;;;5015590;28;20477;-55
2023/08/01 03:21:28;;;;;;;19.67;18.97;;;22.60;99.90;;;;;;5015473;28;20994;-57
2023/08/01 03:23:55;;;;;;;24.03;22.73;;;22.50;99.90;;;;;;5015505;28;20628;-57
2023/08/01 03:26:22;;;;;;;19.87;19.27;;;22.50;99.90;;;;;;5015617;28;20472;-58
2023/08/01 03:28:49;;;;;;;20.87;20.00;;;22.50;99.90;;;;;;5015236;28;20491;-57
2023/08/01 03:31:16;;;;;;;21.07;20.27;;;22.50;99.90;;;;;;5015232;28;20490;-57
2023/08/01 03:33:43;;;;;;;21.43;20.63;;;22.50;99.90;;;;;;5015459;28;20957;-55
2023/08/01 03:36:09;;;;;;;21.57;20.60;;;22.50;99.90;;;;;;5015281;28;20870;-58
2023/08/01 03:38:38;;;;;;;21.90;20.90;;;22.50;99.90;;;;;;5015271;28;20544;-57
2023/08/01 03:41:05;;;;;;;22.20;21.30;;;22.50;99.90;;;;;;5014674;28;20504;-57
2023/08/01 03:43:32;;;;;;;21.87;21.00;;;22.50;99.90;;;;;;5015400;28;20480;-58
2023/08/01 03:45:58;;;;;;;21.07;20.27;;;22.50;99.90;;;;;;5015026;28;20524;-59
2023/08/01 03:48:25;;;;;;;23.20;22.20;;;22.50;99.90;;;;;;5015064;28;20474;-57
2023/08/01 03:50:52;;;;;;;22.40;21.30;;;22.50;99.90;;;;;;5014972;28;20895;-58
2023/08/01 03:53:19;;;;;;;22.00;21.10;;;22.50;99.90;;;;;;5015009;28;20446;-57
2023/08/01 03:55:48;;;;;;;23.53;22.27;;;22.50;99.90;;;;;;5015045;28;20580;-56
2023/08/01 03:58:15;;;;;;;22.27;20.97;;;22.40;99.90;;;;;;5014829;28;20525;-57
2023/08/01 04:00:42;;;;;;;23.77;22.47;;;22.40;99.90;;;;;;5014795;28;20508;-58
2023/08/01 04:03:09;;;;;;;24.13;23.00;;;22.40;99.90;;;;;;5014668;28;20473;-57
2023/08/01 04:05:36;;;;;;;23.93;22.37;;;22.40;99.90;;;;;;5014840;28;20509;-57
2023/08/01 04:08:03;;;;;;;23.47;22.50;;;22.40;99.90;;;;;;5014034;28;20446;-57
2023/08/01 04:10:30;;;;;;;24.50;23.30;;;22.40;99.90;;;;;;5014297;28;20501;-57
2023/08/01 04:12:58;;;;;;;25.10;23.90;;;22.40;99.90;;;;;;5014448;28;20478;-56
2023/08/01 04:15:25;;;;;;;26.23;24.93;;;22.40;99.90;;;;;;5006758;28;20471;-56
2023/08/01 04:17:52;;;;;;;24.37;23.40;;;22.40;99.90;;;;;;5014804;28;20528;-57
2023/08/01 04:20:19;;;;;;;25.17;24.07;;;22.40;99.90;;;;;;5014431;28;20494;-55
2023/08/01 04:22:46;;;;;;;24.90;23.80;;;22.40;99.90;;;;;;5014369;28;20918;-56
2023/08/01 04:25:13;;;;;;;25.80;24.73;;;22.40;99.90;;;;;;5014213;28;20927;-57
2023/08/01 04:27:40;;;;;;;27.67;26.40;;;22.40;99.90;;;;;;5014501;28;20477;-57
2023/08/01 04:30:09;;;;;;;26.17;24.97;;;22.30;99.90;;;;;;5014044;28;20508;-58
2023/08/01 04:32:36;;;;;;;26.20;25.03;;;22.40;99.90;;;;;;5014504;28;20500;-57
2023/08/01 04:35:03;;;;;;;26.53;25.43;;;22.30;99.90;;;;;;5013880;28;20478;-58
2023/08/01 04:37:30;;;;;;;27.40;26.10;;;22.30;99.90;;;;;;5014375;28;20860;-57
2023/08/01 04:39:57;;;;;;;27.47;26.27;;;22.30;99.90;;;;;;5014025;28;20528;-61
2023/08/01 04:42:23;;;;;;;24.30;23.10;;;22.30;99.90;;;;;;5013341;28;20484;-59
2023/08/01 04:44:50;;;;;;;25.60;24.30;;;22.30;99.90;;;;;;5013495;28;20513;-60
2023/08/01 04:47:20;;;;;;;25.80;24.60;;;22.30;99.90;;;;;;5013479;28;20450;-60
2023/08/01 04:49:47;;;;;;;26.03;24.73;;;22.30;99.90;;;;;;5013404;28;20512;-59
2023/08/01 04:52:14;;;;;;;25.80;24.70;;;22.30;99.90;;;;;;5013849;28;20569;-60
2023/08/01 04:54:41;;;;;;;28.07;26.40;;;22.30;99.90;;;;;;5013388;28;20557;-60
2023/08/01 04:57:08;;;;;;;28.70;26.83;;;22.30;99.90;;;;;;5013163;28;20482;-60
2023/08/01 04:59:34;;;;;;;26.03;24.63;;;22.30;99.90;;;;;;5012690;28;20489;-59
2023/08/01 05:02:01;;;;;;;26.97;25.77;;;22.30;99.90;;;;;;5012921;28;20500;-60
2023/08/01 05:04:29;;;;;;;27.13;25.93;;;22.30;99.90;;;;;;5013067;28;20484;-59
2023/08/01 05:06:56;;;;;;;34.80;33.23;;;22.30;99.90;;;;;;5012786;28;20485;-62
2023/08/01 05:09:25;;;;;;;37.27;35.87;;;22.30;99.90;;;;;;5012458;28;20470;-63
2023/08/01 05:11:56;;;;;;;39.90;37.80;;;22.30;99.90;;;;;;5012901;28;20529;-63
2023/08/01 05:14:24;;;;;;;39.10;37.53;;;22.30;99.90;;;;;;5012694;28;20481;-61
2023/08/01 05:16:51;;;;;;;39.40;37.77;;;22.40;99.90;;;;;;5012589;28;22312;-63
2023/08/01 05:19:18;;;;;;;39.30;37.70;;;22.50;99.90;;;;;;5011501;28;20442;-62
2023/08/01 05:21:50;;;;;;;39.90;38.23;;;22.60;99.90;;;;;;5012606;28;20962;-61
2023/08/01 05:24:22;;;;;;;40.43;38.63;;;22.60;99.90;;;;;;5011423;28;20473;-60
2023/08/01 05:26:50;;;;;;;38.90;37.23;;;22.80;99.90;;;;;;5012277;28;20885;-64
2023/08/01 05:29:17;;;;;;;39.90;38.40;;;22.90;99.90;;;;;;5010432;28;20446;-67
2023/08/01 05:31:45;;;;;;;39.40;37.60;;;23.10;99.90;;;;;;5012464;28;20474;-64
2023/08/01 05:34:13;;;;;;;39.30;37.80;;;23.20;99.90;;;;;;5012424;28;20532;-63
2023/08/01 05:36:41;;;;;;;40.70;39.00;;;23.30;99.90;;;;;;5012037;28;20486;-64
2023/08/01 05:39:13;;;;;;;39.90;38.30;;;23.40;99.90;;;;;;5011938;28;20446;-65
2023/08/01 05:41:41;;;;;;;38.90;37.10;;;23.50;99.90;;;;;;5012319;28;20493;-65
2023/08/01 05:44:10;;;;;;;40.07;38.27;;;23.70;99.90;;;;;;5012230;28;20446;-64
2023/08/01 05:46:38;;;;;;;40.57;38.77;;;23.80;99.90;;;;;;5012262;28;20516;-65
2023/08/01 05:49:06;;;;;;;39.97;37.37;;;23.90;99.90;;;;;;5011407;28;20465;-66
2023/08/01 05:51:35;;;;;;;40.27;38.43;;;24.00;99.90;;;;;;5012140;28;20893;-66
2023/08/01 05:54:03;;;;;;;41.60;39.07;;;24.10;99.90;;;;;;5012117;28;20541;-65
2023/08/01 05:56:34;;;;;;;41.00;38.60;;;24.20;99.90;;;;;;5010325;28;20474;-66
2023/08/01 05:59:04;;;;;;;34.85;32.95;;;24.30;99.90;;;;;;5007704;28;20562;-67
2023/08/01 06:01:33;;;;;;;42.83;40.63;;;24.30;99.90;;;;;;5011164;28;20316;-65
2023/08/01 06:04:00;;;;;;;40.93;39.03;;;24.50;99.90;;;;;;5011776;28;20453;-67
2023/08/01 06:06:35;;;;;;;39.90;37.97;;;24.60;99.90;;;;;;5010592;28;20509;-66
2023/08/01 06:09:07;;;;;;;39.27;37.67;;;24.60;99.90;;;;;;5007427;28;20441;-64
2023/08/01 06:11:37;;;;;;;38.87;37.27;;;24.60;99.90;;;;;;5003817;28;20469;-65
2023/08/01 06:14:04;;;;;;;39.93;38.23;;;24.70;99.90;;;;;;5011142;28;20454;-65
2023/08/01 06:16:36;;;;;;;40.07;38.47;;;24.70;99.90;;;;;;5011096;28;20531;-63
2023/08/01 06:19:11;;;;;;;41.17;39.00;;;24.70;99.90;;;;;;5007486;28;20435;-65
2023/08/01 06:21:38;;;;;;;41.00;39.40;;;24.80;99.90;;;;;;5004684;28;20519;-64
2023/08/01 06:24:08;;;;;;;42.10;40.30;;;24.80;99.90;;;;;;5011165;28;20544;-65
2023/08/01 06:26:37;;;;;;;43.50;41.30;;;24.90;99.90;;;;;;5009618;28;20513;-64
2023/08/01 06:29:05;;;;;;;42.53;40.63;;;24.90;99.90;;;;;;5010494;28;20445;-64
2023/08/01 06:31:32;;;;;;;41.83;40.13;;;25.00;99.90;;;;;;5001698;28;20545;-64
2023/08/01 06:34:01;;;;;;;41.73;40.00;;;25.00;99.90;;;;;;5010996;28;20843;-66
2023/08/01 06:36:28;;;;;;;41.90;40.10;;;25.00;99.90;;;;;;5010402;28;20496;-65
2023/08/01 06:38:56;;;;;;;43.60;41.70;;;25.00;99.90;;;;;;5015646;28;20461;-67
2023/08/01 06:41:26;;;;;;;41.00;39.50;;;25.10;99.90;;;;;;5025149;28;20473;-64
2023/08/01 06:43:54;;;;;;;41.40;39.67;;;25.10;99.90;;;;;;5013106;28;20501;-65
2023/08/01 06:46:27;;;;;;;40.40;38.80;;;25.10;99.90;;;;;;5010508;28;20959;-63
2023/08/01 06:48:57;;;;;;;42.33;40.60;;;25.20;99.90;;;;;;5010586;28;20512;-64
2023/08/01 06:51:33;;;;;;;41.97;40.23;;;25.20;99.90;;;;;;5002633;28;20541;-62
2023/08/01 06:54:00;;;;;;;43.60;41.60;;;25.20;99.90;;;;;;5010759;28;20529;-64
2023/08/01 06:56:28;;;;;;;43.67;41.70;;;25.20;99.90;;;;;;5008431;28;20470;-59
2023/08/01 06:58:58;;;;;;;41.37;39.43;;;25.30;99.90;;;;;;5010592;28;20450;-65
2023/08/01 07:01:26;;;;;;;42.53;40.60;;;25.30;99.90;;;;;;5010475;28;20458;-66
2023/08/01 07:03:53;;;;;;;42.93;41.13;;;25.30;99.90;;;;;;5011309;28;20442;-67
2023/08/01 07:06:24;;;;;;;40.20;38.50;;;25.20;99.90;;;;;;5010120;28;20516;-65
2023/08/01 07:08:52;;;;;;;40.80;39.10;;;25.20;99.90;;;;;;5011228;28;20977;-64
2023/08/01 07:11:22;;;;;;;42.10;40.50;;;25.30;99.90;;;;;;5014525;28;20987;-63
2023/08/01 07:13:49;;;;;;;43.17;41.57;;;25.30;99.90;;;;;;5010583;28;20478;-62
2023/08/01 07:16:26;;;;;;;41.47;39.60;;;25.30;99.90;;;;;;5010236;28;20477;-61
2023/08/01 07:18:53;;;;;;;41.17;39.47;;;25.30;99.90;;;;;;5011448;28;20445;-64
2023/08/01 07:21:24;;;;;;;40.90;39.00;;;25.20;99.90;;;;;;5015834;28;20496;-61
2023/08/01 07:23:51;;;;;;;44.27;41.97;;;25.20;99.90;;;;;;5011819;28;20450;-62
2023/08/01 07:26:18;;;;;;;40.83;39.10;;;25.10;99.90;;;;;;5011199;28;20535;-61
2023/08/01 07:28:45;;;;;;;43.63;41.90;;;25.00;99.90;;;;;;5011227;28;20985;-61
2023/08/01 07:31:14;;;;;;;41.50;39.80;;;25.00;99.90;;;;;;5010997;28;20458;-60
2023/08/01 07:33:43;;;;;;;43.03;40.70;;;25.00;99.50;;;;;;5014185;28;20514;-58
2023/08/01 07:36:10;;;;;;;41.80;39.97;;;25.10;99.70;;;;;;5018881;28;20446;-59
2023/08/01 07:38:36;;;;;;;42.23;40.33;;;25.20;99.40;;;;;;5010375;28;20542;-62
2023/08/01 07:41:08;;;;;;;41.50;39.80;;;25.00;99.60;;;;;;5010509;28;20523;-64
2023/08/01 07:43:36;;;;;;;41.70;39.93;;;25.00;99.20;;;;;;5009520;28;20446;-61
2023/08/01 07:46:03;;;;;;;42.33;40.47;;;25.00;99.40;;;;;;5024082;28;20513;-58
2023/08/01 07:48:30;;;;;;;42.00;40.20;;;25.10;99.20;;;;;;5022780;28;20442;-59
2023/08/01 07:50:58;;;;;;;43.97;42.17;;;25.10;98.90;;;;;;5016012;28;20516;-58
2023/08/01 07:53:25;;;;;;;42.77;41.00;;;25.10;99.00;;;;;;5016763;28;20477;-59
2023/08/01 07:55:53;;;;;;;43.00;40.97;;;25.00;99.00;;;;;;5015922;28;20477;-61
2023/08/01 07:58:20;;;;;;;43.07;40.83;;;25.00;99.30;;;;;;5008583;28;20454;-61
2023/08/01 08:00:47;;;;;;;43.13;41.33;;;25.00;99.00;;;;;;5014622;28;20500;-63
2023/08/01 08:03:14;;;;;;;43.27;41.57;;;25.00;98.80;;;;;;5015623;28;20488;-61
2023/08/01 08:05:41;;;;;;;42.20;40.40;;;25.00;98.70;;;;;;5014021;28;20509;-61
2023/08/01 08:08:09;;;;;;;41.97;40.37;;;25.10;98.90;;;;;;5014111;28;20508;-63
2023/08/01 08:10:36;;;;;;;43.10;41.40;;;25.00;98.50;;;;;;5008609;28;20909;-57
2023/08/01 08:13:03;;;;;;;43.87;42.00;;;25.00;98.10;;;;;;5017909;28;20500;-56
2023/08/01 08:15:33;;;;;;;42.93;41.13;;;25.00;98.00;;;;;;5015074;28;20454;-63
2023/08/01 08:18:00;;;;;;;42.80;41.17;;;25.00;98.00;;;;;;5013693;28;20446;-60
2023/08/01 08:20:28;;;;;;;43.80;41.93;;;25.00;98.00;;;;;;5013440;28;20466;-62
2023/08/01 08:22:55;;;;;;;44.40;42.50;;;25.00;98.10;;;;;;5013298;28;20438;-61
2023/08/01 08:25:23;;;;;;;43.20;41.23;;;25.00;98.00;;;;;;5012014;28;20523;-62
2023/08/01 08:27:52;;;;;;;42.83;41.00;;;24.90;97.00;;;;;;5014102;28;20474;-58
2023/08/01 08:30:19;;;;;;;42.37;40.67;;;24.90;97.50;;;;;;5013513;28;20535;-61
2023/08/01 08:32:46;;;;;;;45.47;43.57;;;24.90;97.00;;;;;;5013729;28;20473;-58
2023/08/01 08:35:13;;;;;;;41.90;40.20;;;24.90;97.50;;;;;;5014022;28;20442;-58
2023/08/01 08:37:40;;;;;;;44.47;42.20;;;24.90;97.30;;;;;;5019238;28;20454;-59
2023/08/01 08:40:08;;;;;;;42.10;40.40;;;25.00;97.20;;;;;;5013903;28;20489;-62
2023/08/01 08:42:36;;;;;;;42.43;40.83;;;25.00;97.10;;;;;;5004984;28;20492;-63
2023/08/01 08:45:05;;;;;;;43.73;42.00;;;24.90;97.30;;;;;;5013989;28;20442;-59
2023/08/01 08:47:36;;;;;;;42.27;40.27;;;25.00;97.20;;;;;;5014880;28;20486;-62
2023/08/01 08:50:03;;;;;;;43.63;41.63;;;25.00;97.30;;;;;;5012912;28;20485;-61
2023/08/01 08:52:30;;;;;;;42.23;40.50;;;25.00;97.10;;;;;;5014341;28;20465;-63
2023/08/01 08:54:58;;;;;;;43.00;41.40;;;25.00;97.20;;;;;;5012880;28;20466;-62
2023/08/01 08:57:25;;;;;;;39.60;37.90;;;25.00;97.30;;;;;;5012619;28;20909;-63
2023/08/01 08:59:54;;;;;;;43.90;41.70;;;25.00;97.20;;;;;;5013150;28;20261;-59
2023/08/01 09:02:22;;;;;;;44.77;42.77;;;24.90;97.10;;;;;;5012483;28;20875;-61
2023/08/01 09:04:48;;;;;;;42.20;40.30;;;25.00;96.90;;;;;;5013174;28;20969;-64
2023/08/01 09:07:18;;;;;;;42.80;41.00;;;25.00;96.70;;;;;;5015640;28;20509;-61
2023/08/01 09:09:45;;;;;;;41.22;39.22;;;25.00;96.40;;;;;;5013131;28;20470;-60
2023/08/01 09:12:12;;;;;;;44.07;42.27;;;25.00;96.10;;;;;;5012480;28;20241;-61
2023/08/01 09:14:39;;;;;;;42.77;41.00;;;25.00;96.40;;;;;;5013890;28;20484;-64
2023/08/01 09:17:09;;;;;;;43.77;41.57;;;25.00;96.00;;;;;;5012455;28;20470;-63
2023/08/01 09:19:36;;;;;;;42.97;41.37;;;25.00;96.00;;;;;;5012020;28;20884;-65
2023/08/01 09:22:03;;;;;;;43.40;41.47;;;25.10;95.80;;;;;;5013137;28;20481;-63
2023/08/01 09:24:30;;;;;;;44.40;42.50;;;25.00;95.60;;;;;;5015029;28;20478;-62
2023/08/01 09:27:04;;;;;;;44.37;42.47;;;25.00;95.50;;;;;;5015268;28;20512;-58
2023/08/01 09:29:32;;;;;;;43.90;41.97;;;25.00;95.70;;;;;;5016664;28;20445;-63
2023/08/01 09:31:59;;;;;;;42.43;40.63;;;25.00;95.90;;;;;;5015144;28;20449;-61
2023/08/01 09:34:28;;;;;;;42.07;40.37;;;25.00;96.10;;;;;;5012211;28;20952;-63
2023/08/01 09:36:59;;;;;;;41.20;39.50;;;25.00;96.10;;;;;;5012342;28;20860;-63
2023/08/01 09:39:26;;;;;;;40.23;38.70;;;25.00;95.70;;;;;;5017221;28;20441;-61
2023/08/01 09:41:57;;;;;;;42.37;40.77;;;25.00;95.70;;;;;;5012249;28;20438;-61
2023/08/01 09:44:25;;;;;;;42.27;40.60;;;24.90;95.10;;;;;;5011926;28;20481;-63
2023/08/01 09:47:00;;;;;;;42.30;40.60;;;25.00;95.30;;;;;;5011985;28;20509;-62
2023/08/01 09:49:29;;;;;;;45.90;43.47;;;25.00;95.20;;;;;;5011327;28;20574;-63
2023/08/01 09:51:56;;;;;;;41.00;39.30;;;25.00;95.10;;;;;;5012009;28;20473;-61
2023/08/01 09:54:24;;;;;;;42.70;41.10;;;25.00;95.10;;;;;;5011728;28;20470;-59
2023/08/01 09:56:53;;;;;;;42.67;40.97;;;25.00;95.30;;;;;;5011932;28;20874;-58
2023/08/01 09:59:21;;;;;;;43.70;41.70;;;25.10;95.20;;;;;;5011380;28;20469;-59
2023/08/01 10:01:51;;;;;;;42.30;40.57;;;25.10;95.10;;;;;;5012416;28;20867;-59
2023/08/01 10:04:21;;;;;;;41.70;39.83;;;25.10;94.70;;;;;;5012904;28;20521;-58
2023/08/01 10:06:54;;;;;;;44.27;41.90;;;25.10;94.30;;;;;;5012432;28;20512;-61
2023/08/01 10:09:23;;;;;;;42.83;40.87;;;25.20;95.00;;;;;;5011250;28;20513;-60
2023/08/01 10:11:51;;;;;;;41.40;39.80;;;25.10;94.40;;;;;;5011670;28;20867;-64
2023/08/01 10:14:20;;;;;;;42.00;40.30;;;25.00;94.30;;;;;;5012043;28;20473;-62
2023/08/01 10:16:47;;;;;;;42.30;40.67;;;25.10;93.80;;;;;;5011478;28;20435;-61
2023/08/01 10:19:15;;;;;;;41.97;40.27;;;25.10;93.80;;;;;;5013026;28;20466;-58
2023/08/01 10:21:43;;;;;;;43.30;41.60;;;25.20;93.40;;;;;;5013557;28;20963;-57
2023/08/01 10:24:13;;;;;;;42.80;41.10;;;25.20;93.30;;;;;;5013796;28;20456;-58
2023/08/01 10:26:40;;;;;;;42.40;40.67;;;25.20;93.20;;;;;;5005643;28;20854;-63
2023/08/01 10:29:07;;;;;;;42.97;41.10;;;25.10;92.70;;;;;;5011557;28;20865;-61
2023/08/01 10:31:34;;;;;;;42.13;40.33;;;25.20;92.70;;;;;;5010871;28;20905;-60
2023/08/01 10:34:08;;;;;;;43.50;41.60;;;25.20;92.60;;;;;;5011038;28;20955;-59
2023/08/01 10:36:35;;;;;;;41.70;39.80;;;25.20;92.50;;;;;;5010995;28;20867;-56
2023/08/01 10:39:03;;;;;;;41.57;39.87;;;25.20;92.50;;;;;;5010800;28;20481;-58
2023/08/01 10:41:33;;;;;;;41.70;40.00;;;25.30;92.80;;;;;;5011238;28;20516;-58
2023/08/01 10:44:07;;;;;;;41.80;40.17;;;25.30;92.50;;;;;;5011182;28;20541;-57
2023/08/01 10:46:51;;;;;;;42.13;40.43;;;25.20;92.10;;;;;;5011605;28;20560;-59
2023/08/01 10:49:19;;;;;;;41.50;39.80;;;25.30;92.10;;;;;;5010677;28;20493;-63
2023/08/01 10:51:46;;;;;;;40.57;38.77;;;25.30;92.00;;;;;;5011672;28;20485;-61
2023/08/01 10:54:22;;;;;;;40.50;39.00;;;25.30;91.50;;;;;;5011144;28;20488;-63
2023/08/01 10:56:51;;;;;;;40.77;39.27;;;25.30;91.20;;;;;;5004225;28;20437;-62
2023/08/01 10:59:18;;;;;;;40.33;38.73;;;25.30;91.10;;;;;;5011530;28;20749;-60
2023/08/01 11:01:46;;;;;;;41.93;40.03;;;25.40;91.10;;;;;;5010983;28;20511;-61
2023/08/01 11:04:17;;;;;;;41.97;40.27;;;25.40;90.70;;;;;;5010952;28;20444;-60
2023/08/01 11:06:48;;;;;;;43.00;41.30;;;25.40;90.50;;;;;;5003317;28;20501;-61
2023/08/01 11:09:17;;;;;;;41.47;39.87;;;25.40;90.40;;;;;;5010920;28;20485;-61
2023/08/01 11:11:44;;;;;;;43.40;41.57;;;25.40;90.60;;;;;;5011130;28;20519;-65
2023/08/01 11:14:13;;;;;;;42.20;40.40;;;25.40;90.80;;;;;;5010654;28;20482;-70
2023/08/01 11:16:41;;;;;;;42.00;40.40;;;25.40;91.20;;;;;;5005134;28;20437;-68
2023/08/01 11:19:18;;;;;;;43.53;41.53;;;25.40;91.20;;;;;;5015701;28;20478;-64
2023/08/01 11:21:45;;;;;;;42.40;40.67;;;25.50;91.10;;;;;;5010937;28;20970;-59
2023/08/01 11:24:12;;;;;;;41.83;40.13;;;25.50;91.20;;;;;;5015592;28;20470;-59
2023/08/01 11:26:42;;;;;;;43.40;41.50;;;25.50;90.60;;;;;;5014732;28;20514;-60
2023/08/01 11:29:08;;;;;;;41.95;40.15;;;25.50;90.10;;;;;;5014412;28;20435;-59
2023/08/01 11:31:37;;;;;;;43.30;41.40;;;25.60;89.60;;;;;;5014694;28;20261;-61
2023/08/01 11:34:04;;;;;;;45.97;44.07;;;25.60;88.70;;;;;;5015521;28;20473;-60
2023/08/01 11:36:30;;;;;;;43.27;41.37;;;25.50;88.90;;;;;;5014609;28;20473;-60
2023/08/01 11:38:59;;;;;;;43.17;41.47;;;25.50;89.40;;;;;;5015998;28;20482;-59
2023/08/01 11:41:27;;;;;;;42.10;40.50;;;25.50;90.30;;;;;;5015773;28;20990;-59
2023/08/01 11:43:54;;;;;;;42.27;40.67;;;25.50;90.80;;;;;;5016192;28;20445;-58
2023/08/01 11:46:22;;;;;;;40.70;39.20;;;25.50;91.00;;;;;;5015896;28;20945;-60
2023/08/01 11:48:51;;;;;;;42.67;40.60;;;25.50;91.60;;;;;;5015475;28;20457;-57
2023/08/01 11:51:18;;;;;;;41.47;39.47;;;25.50;91.80;;;;;;5015818;28;20458;-57
2023/08/01 11:53:45;;;;;;;41.03;39.43;;;25.50;91.80;;;;;;5015868;28;20442;-58
2023/08/01 11:56:21;;;;;;;41.63;40.13;;;25.50;92.00;;;;;;5016811;28;20492;-58
2023/08/01 11:58:48;;;;;;;41.13;39.53;;;25.50;92.20;;;;;;5008659;28;20438;-62
2023/08/01 12:01:16;;;;;;;42.30;40.53;;;25.60;92.40;;;;;;5014898;28;20828;-63
2023/08/01 12:03:47;;;;;;;43.00;41.20;;;25.70;92.30;;;;;;5008803;28;20883;-59
2023/08/01 12:06:15;;;;;;;40.50;38.87;;;25.80;92.10;;;;;;5017839;28;20481;-59
2023/08/01 12:08:43;;;;;;;41.40;39.80;;;25.80;92.30;;;;;;5010670;28;20505;-58
2023/08/01 12:11:19;;;;;;;41.40;39.80;;;25.90;92.20;;;;;;5018398;28;20551;-57
2023/08/01 12:13:47;;;;;;;40.97;39.47;;;26.00;92.10;;;;;;5012406;28;20488;-56
2023/08/01 12:16:15;;;;;;;41.90;40.30;;;26.00;91.90;;;;;;5020549;28;20492;-58
2023/08/01 12:18:44;;;;;;;44.20;42.20;;;26.00;91.80;;;;;;5017865;28;20442;-56
2023/08/01 12:21:11;;;;;;;41.80;40.30;;;26.00;91.80;;;;;;5018283;28;20462;-63
2023/08/01 12:23:41;;;;;;;41.73;39.57;;;26.00;91.70;;;;;;5019221;28;20470;-61
2023/08/01 12:26:08;;;;;;;42.17;40.47;;;26.10;91.90;;;;;;5015609;28;20470;-63
2023/08/01 12:28:35;;;;;;;41.30;39.60;;;26.10;91.80;;;;;;5015231;28;20533;-63
2023/08/01 12:31:03;;;;;;;41.57;39.80;;;26.00;91.70;;;;;;5014770;28;20497;-62
2023/08/01 12:33:30;;;;;;;41.13;39.53;;;26.00;91.90;;;;;;5015553;28;20870;-61